createdAt,value
2018-04-25T00:00:41.365Z,12.61
2018-04-25T00:03:09.783Z,12.60
2018-04-25T00:05:37.933Z,12.60
2018-04-25T00:08:06.138Z,12.62
2018-04-25T00:10:34.313Z,12.61
2018-04-25T00:13:02.712Z,12.60
2018-04-25T00:15:30.989Z,12.59
2018-04-25T00:17:59.545Z,12.57
2018-04-25T00:20:27.991Z,12.52
2018-04-25T00:22:56.247Z,12.51
2018-04-25T00:25:24.413Z,12.50
2018-04-25T00:27:53.026Z,12.46
2018-04-25T00:30:21.508Z,12.40
2018-04-25T00:32:49.695Z,12.35
2018-04-25T00:35:18.136Z,12.36
2018-04-25T00:37:46.611Z,12.33
2018-04-25T00:40:14.887Z,12.30
2018-04-25T00:42:43.084Z,12.23
2018-04-25T00:45:11.419Z,12.16
2018-04-25T00:47:39.589Z,12.15
2018-04-25T00:50:07.753Z,12.16
2018-04-25T00:52:35.937Z,12.20
2018-04-25T00:55:04.170Z,12.23
2018-04-25T00:57:32.508Z,12.24
2018-04-25T01:00:00.905Z,12.24
2018-04-25T01:02:29.419Z,12.25
2018-04-25T01:04:57.569Z,12.21
2018-04-25T01:07:25.984Z,12.14
2018-04-25T01:09:54.159Z,12.04
2018-04-25T01:12:22.715Z,12.00
2018-04-25T01:14:51.177Z,11.97
2018-04-25T01:17:19.734Z,11.92
2018-04-25T01:19:47.998Z,11.81
2018-04-25T01:22:17.058Z,11.72
2018-04-25T01:24:45.676Z,11.66
2018-04-25T01:27:13.839Z,11.63
2018-04-25T01:29:44.144Z,11.53
2018-04-25T01:32:12.701Z,11.35
2018-04-25T01:34:43.941Z,11.34
2018-04-25T02:01:27.454Z,11.39
2018-04-25T02:03:56.998Z,11.21
2018-04-25T02:06:26.968Z,11.13
2018-04-25T02:08:56.822Z,11.14
2018-04-25T02:11:27.753Z,11.16
2018-04-25T02:13:56.004Z,11.19
2018-04-25T02:16:26.694Z,11.23
2018-04-25T02:18:54.889Z,11.29
2018-04-25T02:21:23.092Z,11.30
2018-04-25T02:23:51.757Z,11.31
2018-04-25T02:26:20.036Z,11.31
2018-04-25T02:28:48.277Z,11.32
2018-04-25T02:31:16.534Z,11.31
2018-04-25T02:33:45.464Z,11.31
2018-04-25T02:36:14.144Z,11.31
2018-04-25T02:38:42.725Z,11.28
2018-04-25T02:41:10.913Z,11.23
2018-04-25T02:43:41.238Z,11.19
2018-04-25T02:46:10.016Z,11.19
2018-04-25T02:48:39.471Z,11.19
2018-04-25T02:51:07.655Z,11.18
2018-04-25T02:53:36.663Z,11.18
2018-04-25T02:56:06.799Z,11.19
2018-04-25T02:58:35.512Z,11.18
2018-04-25T03:01:03.686Z,11.19
2018-04-25T03:03:33.415Z,11.22
2018-04-25T03:06:04.061Z,11.23
2018-04-25T03:08:32.740Z,11.25
2018-04-25T03:11:01.092Z,11.24
2018-04-25T03:13:29.567Z,11.22
2018-04-25T03:15:57.988Z,11.18
2018-04-25T03:18:29.326Z,11.11
2018-04-25T03:20:57.513Z,11.05
2018-04-25T03:23:25.731Z,10.98
2018-04-25T03:25:53.919Z,10.92
2018-04-25T03:28:22.722Z,10.91
2018-04-25T03:30:51.124Z,10.94
2018-04-25T03:33:19.532Z,10.95
2018-04-25T03:35:48.324Z,10.93
2018-04-25T03:38:20.894Z,10.97
2018-04-25T03:40:49.159Z,11.03
2018-04-25T03:43:19.747Z,11.04
2018-04-25T03:45:50.970Z,11.03
2018-04-25T03:48:19.651Z,11.04
2018-04-25T03:50:47.916Z,10.96
2018-04-25T03:53:16.265Z,10.91
2018-04-25T03:55:45.205Z,10.89
2018-04-25T03:58:13.469Z,10.91
2018-04-25T04:00:41.989Z,10.91
2018-04-25T04:03:10.650Z,10.90
2018-04-25T04:05:39.235Z,10.84
2018-04-25T04:08:07.809Z,10.79
2018-04-25T04:10:36.661Z,10.73
2018-04-25T04:13:05.521Z,10.65
2018-04-25T04:15:34.096Z,10.66
2018-04-25T04:18:03.186Z,10.69
2018-04-25T04:20:31.981Z,10.71
2018-04-25T04:23:01.334Z,10.76
2018-04-25T04:25:29.897Z,10.81
2018-04-25T04:27:59.860Z,10.85
2018-04-25T04:30:28.336Z,10.90
2018-04-25T04:32:56.557Z,10.91
2018-04-25T04:35:28.212Z,10.94
2018-04-25T04:37:56.792Z,10.98
2018-04-25T04:40:25.377Z,11.05
2018-04-25T04:42:56.635Z,11.10
2018-04-25T04:45:24.928Z,11.17
2018-04-25T04:47:53.383Z,11.22
2018-04-25T04:50:21.613Z,11.28
2018-04-25T04:52:49.864Z,11.31
2018-04-25T04:55:19.510Z,11.39
2018-04-25T04:57:48.926Z,11.48
2018-04-25T05:00:17.847Z,11.55
2018-04-25T05:02:46.455Z,11.58
2018-04-25T05:05:14.679Z,11.62
2018-04-25T05:07:43.527Z,11.67
2018-04-25T05:10:12.181Z,11.73
2018-04-25T05:12:41.747Z,11.80
2018-04-25T05:15:10.099Z,11.88
2018-04-25T05:17:38.289Z,11.93
2018-04-25T05:20:08.304Z,11.99
2018-04-25T05:22:36.508Z,12.07
2018-04-25T05:25:04.731Z,12.12
2018-04-25T05:27:33.451Z,12.20
2018-04-25T05:30:01.685Z,12.26
2018-04-25T05:32:30.210Z,12.33
2018-04-25T05:34:59.835Z,12.34
2018-04-25T05:37:28.625Z,12.38
2018-04-25T05:39:56.868Z,12.44
2018-04-25T05:42:25.598Z,12.53
2018-04-25T05:44:55.400Z,12.65
2018-04-25T05:47:26.121Z,12.81
2018-04-25T05:49:55.976Z,12.92
2018-04-25T05:52:26.938Z,12.98
2018-04-25T05:54:55.136Z,12.98
2018-04-25T05:57:23.757Z,13.00
2018-04-25T05:59:51.961Z,13.03
2018-04-25T06:02:20.727Z,13.12
2018-04-25T06:04:49.319Z,13.20
2018-04-25T06:07:18.009Z,13.30
2018-04-25T06:09:46.203Z,13.40
2018-04-25T06:12:15.211Z,13.50
2018-04-25T06:14:44.064Z,13.62
2018-04-25T06:17:14.990Z,13.74
2018-04-25T06:19:43.575Z,13.87
2018-04-25T06:25:07.985Z,14.14
2018-04-25T06:27:37.299Z,14.26
2018-04-25T06:30:05.673Z,14.38
2018-04-25T06:32:35.751Z,14.52
2018-04-25T06:35:04.268Z,14.63
2018-04-25T06:37:36.595Z,14.80
2018-04-25T06:40:04.783Z,14.94
2018-04-25T06:42:33.341Z,15.08
2018-04-25T06:45:01.836Z,15.20
2018-04-25T06:47:30.126Z,15.31
2018-04-25T06:49:58.366Z,15.45
2018-04-25T06:52:26.534Z,15.60
2018-04-25T06:54:54.786Z,15.70
2018-04-25T06:57:23.004Z,15.82
2018-04-25T06:59:51.218Z,15.94
2018-04-25T07:02:19.373Z,16.06
2018-04-25T07:04:47.533Z,16.15
2018-04-25T07:07:15.699Z,16.24
2018-04-25T07:09:44.123Z,16.37
2018-04-25T07:12:12.526Z,16.49
2018-04-25T07:14:41.407Z,16.61
2018-04-25T07:17:09.569Z,16.77
2018-04-25T07:19:38.010Z,16.95
2018-04-25T07:22:06.499Z,17.07
2018-04-25T07:24:34.690Z,17.26
2018-04-25T07:27:02.864Z,17.40
2018-04-25T07:29:31.098Z,17.54
2018-04-25T07:31:59.301Z,17.59
2018-04-25T07:34:27.743Z,17.65
2018-04-25T07:36:56.268Z,17.70
2018-04-25T07:39:24.412Z,17.72
2018-04-25T07:41:52.636Z,17.69
2018-04-25T07:44:20.764Z,17.84
2018-04-25T07:46:49.156Z,17.91
2018-04-25T07:49:17.345Z,18.05
2018-04-25T07:51:45.517Z,18.16
2018-04-25T07:54:13.701Z,18.28
2018-04-25T07:56:41.861Z,18.35
2018-04-25T07:59:10.062Z,18.41
2018-04-25T08:01:38.495Z,18.52
2018-04-25T08:04:07.503Z,18.67
2018-04-25T08:06:35.666Z,18.76
2018-04-25T08:09:03.838Z,18.89
2018-04-25T08:11:32.035Z,18.98
2018-04-25T08:14:11.972Z,19.03
2018-04-25T08:16:52.249Z,19.11
2018-04-25T08:19:32.564Z,19.26
2018-04-25T08:22:01.077Z,19.33
2018-04-25T08:24:29.230Z,19.39
2018-04-25T08:26:57.406Z,19.50
2018-04-25T08:29:25.862Z,19.59
2018-04-25T08:31:54.313Z,19.65
2018-04-25T08:34:22.534Z,19.66
2018-04-25T08:36:51.012Z,19.79
2018-04-25T08:39:20.140Z,19.89
2018-04-25T08:41:48.373Z,19.99
2018-04-25T08:44:16.808Z,20.17
2018-04-25T08:46:44.962Z,20.18
2018-04-25T08:49:13.436Z,20.14
2018-04-25T08:51:41.746Z,20.12
2018-04-25T08:54:09.910Z,20.24
2018-04-25T08:56:38.315Z,20.52
2018-04-25T08:59:06.476Z,20.83
2018-04-25T09:01:34.647Z,21.15
2018-04-25T09:04:02.841Z,21.37
2018-04-25T09:06:30.984Z,21.54
2018-04-25T09:08:59.135Z,21.50
2018-04-25T09:11:27.304Z,21.38
2018-04-25T09:13:55.487Z,21.29
2018-04-25T09:16:23.644Z,21.26
2018-04-25T09:18:51.791Z,21.32
2018-04-25T09:21:19.943Z,21.33
2018-04-25T09:23:48.247Z,21.34
2018-04-25T09:26:16.422Z,21.27
2018-04-25T09:28:44.829Z,21.09
2018-04-25T09:31:12.980Z,20.97
2018-04-25T09:33:43.456Z,21.00
2018-04-25T09:36:11.605Z,20.98
2018-04-25T09:38:39.844Z,21.04
2018-04-25T09:41:07.998Z,21.18
2018-04-25T09:43:36.410Z,21.37
2018-04-25T09:46:04.568Z,21.44
2018-04-25T09:48:32.750Z,21.38
2018-04-25T09:51:00.911Z,21.39
2018-04-25T09:53:29.069Z,21.59
2018-04-25T09:55:57.493Z,21.77
2018-04-25T09:58:25.859Z,21.71
2018-04-25T10:00:58.131Z,21.69
2018-04-25T10:03:26.572Z,21.59
2018-04-25T10:05:54.899Z,21.47
2018-04-25T10:08:23.227Z,21.36
2018-04-25T10:10:51.479Z,21.26
2018-04-25T10:13:19.942Z,21.20
2018-04-25T10:15:48.390Z,21.14
2018-04-25T10:18:16.556Z,21.15
2018-04-25T10:20:45.047Z,21.30
2018-04-25T10:23:13.245Z,21.44
2018-04-25T10:25:41.792Z,21.53
2018-04-25T10:28:10.305Z,21.45
2018-04-25T10:30:38.544Z,21.37
2018-04-25T10:33:07.063Z,21.55
2018-04-25T10:35:35.200Z,21.72
2018-04-25T10:38:03.677Z,21.92
2018-04-25T10:40:32.208Z,22.13
2018-04-25T10:43:00.744Z,22.35
2018-04-25T10:45:29.262Z,22.54
2018-04-25T10:47:57.427Z,22.68
2018-04-25T10:50:25.623Z,22.72
2018-04-25T10:52:54.235Z,22.76
2018-04-25T10:55:22.883Z,22.76
2018-04-25T10:57:51.371Z,22.93
2018-04-25T11:00:19.526Z,23.07
2018-04-25T11:02:47.706Z,23.20
2018-04-25T11:05:16.221Z,23.33
2018-04-25T11:07:44.703Z,23.19
2018-04-25T11:10:12.871Z,23.10
2018-04-25T11:12:41.591Z,22.88
2018-04-25T11:15:09.748Z,22.80
2018-04-25T11:17:38.033Z,22.90
2018-04-25T11:20:06.610Z,23.04
2018-04-25T11:22:34.799Z,23.21
2018-04-25T11:25:03.071Z,23.27
2018-04-25T11:27:31.308Z,23.35
2018-04-25T11:29:59.497Z,23.48
2018-04-25T11:32:27.944Z,23.53
2018-04-25T11:34:56.145Z,23.69
2018-04-25T11:37:24.644Z,23.76
2018-04-25T11:39:52.837Z,23.86
2018-04-25T11:42:21.637Z,23.94
2018-04-25T11:44:50.263Z,23.95
2018-04-25T11:47:18.488Z,23.87
2018-04-25T11:49:46.629Z,23.59
2018-04-25T11:52:14.792Z,23.28
2018-04-25T11:54:42.961Z,23.13
2018-04-25T11:57:11.644Z,23.09
2018-04-25T11:59:40.299Z,23.31
2018-04-25T12:02:08.751Z,23.55
2018-04-25T12:04:37.017Z,23.59
2018-04-25T12:07:05.603Z,23.65
2018-04-25T12:09:33.931Z,23.62
2018-04-25T12:12:02.092Z,23.74
2018-04-25T12:14:30.649Z,23.99
2018-04-25T12:16:59.319Z,24.25
2018-04-25T12:19:27.921Z,24.22
2018-04-25T12:21:56.570Z,24.21
2018-04-25T12:24:24.799Z,24.19
2018-04-25T12:26:52.911Z,24.42
2018-04-25T12:29:21.079Z,24.54
2018-04-25T12:31:49.359Z,24.54
2018-04-25T12:34:17.882Z,24.61
2018-04-25T12:36:46.436Z,24.71
2018-04-25T12:39:14.924Z,24.73
2018-04-25T12:41:43.580Z,24.64
2018-04-25T12:44:11.952Z,24.26
2018-04-25T12:46:40.579Z,24.14
2018-04-25T12:49:08.905Z,24.18
2018-04-25T12:51:37.557Z,24.23
2018-04-25T12:54:06.064Z,24.31
2018-04-25T12:56:34.234Z,24.48
2018-04-25T12:59:02.396Z,24.69
2018-04-25T13:01:30.567Z,24.69
2018-04-25T13:03:59.041Z,24.61
2018-04-25T13:06:27.505Z,24.62
2018-04-25T13:08:55.698Z,24.69
2018-04-25T13:11:24.177Z,24.67
2018-04-25T13:13:52.340Z,24.77
2018-04-25T13:16:20.536Z,24.82
2018-04-25T13:18:48.691Z,24.84
2018-04-25T13:21:16.847Z,24.86
2018-04-25T13:23:45.032Z,24.83
2018-04-25T13:26:13.799Z,24.82
2018-04-25T13:28:41.986Z,24.84
2018-04-25T13:31:10.519Z,24.85
2018-04-25T13:33:39.151Z,24.98
2018-04-25T13:36:07.619Z,25.18
2018-04-25T13:38:35.788Z,25.48
2018-04-25T13:41:03.941Z,25.67
2018-04-25T13:43:32.683Z,25.55
2018-04-25T13:46:01.261Z,25.18
2018-04-25T13:48:29.853Z,25.04
2018-04-25T13:50:58.012Z,25.01
2018-04-25T13:53:26.289Z,24.93
2018-04-25T13:55:54.456Z,24.80
2018-04-25T13:58:22.603Z,24.94
2018-04-25T14:00:50.839Z,25.22
2018-04-25T14:03:19.058Z,25.38
2018-04-25T14:05:47.234Z,25.59
2018-04-25T14:08:15.377Z,25.75
2018-04-25T14:10:43.535Z,25.78
2018-04-25T14:13:12.195Z,25.94
2018-04-25T14:15:40.792Z,26.02
2018-04-25T14:18:08.951Z,26.19
2018-04-25T14:20:37.357Z,26.29
2018-04-25T14:23:05.576Z,26.59
2018-04-25T14:25:34.083Z,26.72
2018-04-25T14:28:02.755Z,27.11
2018-04-25T14:30:31.170Z,27.25
2018-04-25T14:32:59.315Z,27.58
2018-04-25T14:35:28.100Z,27.67
2018-04-25T14:37:56.705Z,27.71
2018-04-25T14:40:25.393Z,27.80
2018-04-25T14:42:53.855Z,27.93
2018-04-25T14:45:22.035Z,27.86
2018-04-25T14:47:50.409Z,27.85
2018-04-25T14:50:18.613Z,28.19
2018-04-25T14:52:46.980Z,28.46
2018-04-25T14:55:15.250Z,28.74
2018-04-25T14:57:43.445Z,28.75
2018-04-25T15:00:11.651Z,28.33
2018-04-25T15:02:40.309Z,27.51
2018-04-25T15:05:08.444Z,27.28
2018-04-25T15:07:36.613Z,27.03
2018-04-25T15:10:05.388Z,26.79
2018-04-25T15:12:34.102Z,26.48
2018-04-25T15:15:02.649Z,25.77
2018-04-25T15:17:30.830Z,25.45
2018-04-25T15:19:58.982Z,25.36
2018-04-25T15:22:27.530Z,25.16
2018-04-25T15:24:55.916Z,24.93
2018-04-25T15:27:24.061Z,24.76
2018-04-25T15:29:52.237Z,24.76
2018-04-25T15:32:20.448Z,24.79
2018-04-25T15:34:49.031Z,24.76
2018-04-25T15:37:17.238Z,24.58
2018-04-25T15:39:45.390Z,24.49
2018-04-25T15:42:13.561Z,24.49
2018-04-25T15:44:42.101Z,24.57
2018-04-25T15:47:10.692Z,24.64
2018-04-25T15:49:39.193Z,24.52
2018-04-25T15:52:07.390Z,24.45
2018-04-25T15:54:35.553Z,24.40
2018-04-25T15:57:04.211Z,24.20
2018-04-25T15:59:32.787Z,24.10
2018-04-25T16:02:01.006Z,24.02
2018-04-25T16:04:29.529Z,23.99
2018-04-25T16:06:58.124Z,24.06
2018-04-25T16:09:27.636Z,24.03
2018-04-25T16:11:55.797Z,23.98
2018-04-25T16:14:24.372Z,23.99
2018-04-25T16:16:52.506Z,23.95
2018-04-25T16:19:21.029Z,23.86
2018-04-25T16:21:49.623Z,23.64
2018-04-25T16:24:18.320Z,23.51
2018-04-25T16:26:46.803Z,23.18
2018-04-25T16:29:15.241Z,22.97
2018-04-25T16:31:43.400Z,22.76
2018-04-25T16:34:11.585Z,22.60
2018-04-25T16:36:40.308Z,22.48
2018-04-25T16:39:08.464Z,22.38
2018-04-25T16:41:36.605Z,22.18
2018-04-25T16:44:04.789Z,22.06
2018-04-25T16:46:33.063Z,22.01
2018-04-25T16:49:01.543Z,22.07
2018-04-25T16:51:30.071Z,22.06
2018-04-25T16:53:58.656Z,22.05
2018-04-25T16:56:26.802Z,22.02
2018-04-25T16:58:55.219Z,21.86
2018-04-25T17:01:23.467Z,21.76
2018-04-25T17:03:52.170Z,21.71
2018-04-25T17:06:20.752Z,21.68
2018-04-25T17:08:48.901Z,21.72
2018-04-25T17:11:17.078Z,21.62
2018-04-25T17:13:45.264Z,21.55
2018-04-25T17:16:13.443Z,21.34
2018-04-25T17:18:41.976Z,21.21
2018-04-25T17:21:10.128Z,21.13
2018-04-25T17:23:38.678Z,21.09
2018-04-25T17:26:06.835Z,20.93
2018-04-25T17:28:35.032Z,20.84
2018-04-25T17:31:03.190Z,20.73
2018-04-25T17:33:31.389Z,20.69
2018-04-25T17:35:59.619Z,20.67
2018-04-25T17:38:28.344Z,20.65
2018-04-25T17:40:56.508Z,20.66
2018-04-25T17:43:24.887Z,20.60
2018-04-25T17:45:53.063Z,20.45
2018-04-25T17:48:21.212Z,20.35
2018-04-25T17:50:49.517Z,20.34
2018-04-25T17:53:17.724Z,20.24
2018-04-25T17:55:45.892Z,20.08
2018-04-25T17:58:14.265Z,19.98
2018-04-25T18:00:42.585Z,19.89
2018-04-25T18:03:10.780Z,19.82
2018-04-25T18:05:38.957Z,19.73
2018-04-25T18:08:07.110Z,19.65
2018-04-25T18:10:35.686Z,19.61
2018-04-25T18:13:04.318Z,19.55
2018-04-25T18:15:32.796Z,19.48
2018-04-25T18:18:00.975Z,19.47
2018-04-25T18:20:29.220Z,19.40
2018-04-25T18:22:58.823Z,19.34
2018-04-25T18:25:26.962Z,19.29
2018-04-25T18:27:55.611Z,19.23
2018-04-25T18:30:23.787Z,19.11
2018-04-25T18:32:52.126Z,19.11
2018-04-25T18:35:20.306Z,19.13
2018-04-25T18:37:48.815Z,19.13
2018-04-25T18:40:16.973Z,19.08
2018-04-25T18:42:45.121Z,19.05
2018-04-25T18:45:13.282Z,19.03
2018-04-25T18:47:42.129Z,18.99
2018-04-25T18:50:10.334Z,18.95
2018-04-25T18:52:38.982Z,18.88
2018-04-25T18:55:07.478Z,18.85
2018-04-25T18:57:36.045Z,18.80
2018-04-25T19:00:04.207Z,18.75
2018-04-25T19:02:32.399Z,18.73
2018-04-25T19:05:00.564Z,18.71
2018-04-25T19:07:29.043Z,18.69
2018-04-25T19:09:57.229Z,18.63
2018-04-25T19:12:25.404Z,18.65
2018-04-25T19:14:53.608Z,18.63
2018-04-25T19:17:21.777Z,18.60
2018-04-25T19:19:49.953Z,18.56
2018-04-25T19:22:18.464Z,18.54
2018-04-25T19:24:46.676Z,18.56
2018-04-25T19:27:14.833Z,18.54
2018-04-25T19:29:43.048Z,18.51
2018-04-25T19:32:11.258Z,18.45
2018-04-25T19:34:39.716Z,18.42
2018-04-25T19:37:07.928Z,18.39
2018-04-25T19:39:36.296Z,18.37
2018-04-25T19:42:04.517Z,18.34
2018-04-25T19:44:32.699Z,18.30
2018-04-25T19:47:00.902Z,18.29
2018-04-25T19:49:29.052Z,18.26
2018-04-25T19:51:57.587Z,18.26
2018-04-25T19:54:25.786Z,18.22
2018-04-25T19:56:54.038Z,18.17
2018-04-25T19:59:22.507Z,18.15
2018-04-25T20:01:50.913Z,18.14
2018-04-25T20:04:19.105Z,18.16
2018-04-25T20:06:47.261Z,18.15
2018-04-25T20:09:15.468Z,18.11
2018-04-25T20:11:43.637Z,18.08
2018-04-25T20:14:11.828Z,18.05
2018-04-25T20:16:40.413Z,18.01
2018-04-25T20:19:08.948Z,18.00
2018-04-25T20:21:37.142Z,17.97
2018-04-25T20:24:05.518Z,17.97
2018-04-25T20:26:34.065Z,17.94
2018-04-25T20:29:02.488Z,17.91
2018-04-25T20:31:31.028Z,17.90
2018-04-25T20:34:00.641Z,17.90
2018-04-25T20:36:29.067Z,17.89
2018-04-25T20:38:57.575Z,17.82
2018-04-25T20:41:26.105Z,17.77
2018-04-25T20:43:54.474Z,17.73
2018-04-25T20:46:22.922Z,17.67
2018-04-25T20:48:51.482Z,17.60
2018-04-25T20:51:20.005Z,17.53
2018-04-25T20:53:48.567Z,17.50
2018-04-25T20:56:17.029Z,17.51
2018-04-25T20:58:45.599Z,17.54
2018-04-25T21:01:14.106Z,17.53
2018-04-25T21:03:42.601Z,17.51
2018-04-25T21:06:11.155Z,17.51
2018-04-25T21:08:39.494Z,17.48
2018-04-25T21:11:08.103Z,17.44
2018-04-25T21:13:36.610Z,17.37
2018-04-25T21:16:05.126Z,17.38
2018-04-25T21:18:33.632Z,17.35
2018-04-25T21:21:02.127Z,17.35
2018-04-25T21:23:30.740Z,17.37
2018-04-25T21:25:59.236Z,17.39
2018-04-25T21:28:27.732Z,17.38
2018-04-25T21:30:55.885Z,17.39
2018-04-25T21:33:24.338Z,17.36
2018-04-25T21:35:52.808Z,17.31
2018-04-25T21:38:21.358Z,17.19
2018-04-25T21:40:49.827Z,17.08
2018-04-25T21:43:18.283Z,17.02
2018-04-25T21:45:46.817Z,16.96
2018-04-25T21:48:15.289Z,16.90
2018-04-25T21:50:43.834Z,16.79
2018-04-25T21:53:12.357Z,16.77
2018-04-25T21:55:40.573Z,16.77
2018-04-25T21:58:08.722Z,16.77
2018-04-25T22:00:37.279Z,16.72
2018-04-25T22:03:05.749Z,16.67
2018-04-25T22:05:34.228Z,16.57
2018-04-25T22:08:02.706Z,16.48
2018-04-25T22:10:31.203Z,16.37
2018-04-25T22:12:59.741Z,16.34
2018-04-25T22:15:28.235Z,16.34
2018-04-25T22:17:56.743Z,16.36
2018-04-25T22:20:24.951Z,16.33
2018-04-25T22:22:53.507Z,16.28
2018-04-25T22:25:22.028Z,16.28
2018-04-25T22:27:50.555Z,16.29
2018-04-25T22:30:18.971Z,16.21
2018-04-25T22:32:47.481Z,16.12
2018-04-25T22:35:16.057Z,16.09
2018-04-25T22:37:44.675Z,16.03
2018-04-25T22:40:13.275Z,15.94
2018-04-25T22:42:41.529Z,15.93
2018-04-25T22:45:10.285Z,15.89
2018-04-25T22:47:38.804Z,15.86
2018-04-25T22:50:07.296Z,15.87
2018-04-25T22:52:35.781Z,15.83
2018-04-25T22:55:04.223Z,15.82
2018-04-25T22:57:32.697Z,15.83
2018-04-25T23:00:02.364Z,15.86
2018-04-25T23:02:30.924Z,15.88
2018-04-25T23:04:59.068Z,15.90
2018-04-25T23:07:27.619Z,15.87
2018-04-25T23:09:56.075Z,15.78
2018-04-25T23:12:24.626Z,15.80
2018-04-25T23:14:53.113Z,15.76
2018-04-25T23:17:21.606Z,15.70
2018-04-25T23:19:50.182Z,15.68
2018-04-25T23:22:18.674Z,15.64
2018-04-25T23:24:48.156Z,15.62
2018-04-25T23:27:16.435Z,15.63
2018-04-25T23:29:45.001Z,15.63
2018-04-25T23:32:13.524Z,15.60
2018-04-25T23:34:42.202Z,15.56
2018-04-25T23:37:10.426Z,15.49
2018-04-25T23:39:38.608Z,15.49
2018-04-25T23:42:06.804Z,15.48
2018-04-25T23:44:35.244Z,15.48
2018-04-25T23:47:03.869Z,15.48
2018-04-25T23:49:32.349Z,15.39
2018-04-25T23:52:00.816Z,15.35
2018-04-25T23:54:29.352Z,15.34
2018-04-25T23:56:58.660Z,15.26
2018-04-25T23:59:27.135Z,15.20
